Time;durP1;ratioP1;P1;durP2;ratioP2;P2;SDS_P1;SDS_P2;PMS_P1;PMS_P2;Temp;Humidity;BMP_temperature;BMP_pressure;BME280_temperature;BME280_humidity;BME280_pressure;Samples;Min_cycle;Max_cycle;Signal;HPM_P1;HPM_P2
2022/10/17 00:00:43;;;;;;;36.35;21.73;;;;;;;;;;5087368;28;20346;-55
2022/10/17 00:03:08;;;;;;;17.08;10.60;;;;;;;;;;5088795;28;20150;-55
2022/10/17 00:05:37;;;;;;;22.95;11.10;;;;;;;;;;5096069;28;20041;-57
2022/10/17 00:08:02;;;;;;;19.55;12.40;;;;;;;;;;5085419;28;20395;-57
2022/10/17 00:10:30;;;;;;;20.55;11.85;;;;;;;;;;5093994;28;20023;-56
2022/10/17 00:12:56;;;;;;;21.38;12.48;;;;;;;;;;5083661;28;20427;-57
2022/10/17 00:15:21;;;;;;;23.15;13.25;;;;;;;;;;5079750;28;20036;-57
2022/10/17 00:17:46;;;;;;;19.58;13.07;;;;;;;;;;5077221;28;20050;-57
2022/10/17 00:20:12;;;;;;;21.65;11.65;;;;;;;;;;5087773;28;20063;-57
2022/10/17 00:22:37;;;;;;;25.17;11.68;;;;;;;;;;5084734;28;20449;-58
2022/10/17 00:25:02;;;;;;;25.02;12.00;;;;;;;;;;5093778;28;20205;-56
2022/10/17 00:27:28;;;;;;;19.90;11.48;;;;;;;;;;5088624;28;20047;-57
2022/10/17 00:29:53;;;;;;;23.45;11.35;;;;;;;;;;5091335;28;20021;-56
2022/10/17 00:32:18;;;;;;;18.27;11.15;;;;;;;;;;5093406;28;20024;-56
2022/10/17 00:34:43;;;;;;;21.48;11.88;;;;;;;;;;5103443;27;20522;-56
2022/10/17 00:37:09;;;;;;;22.02;11.65;;;;;;;;;;5090538;28;20497;-56
2022/10/17 00:39:34;;;;;;;18.98;10.68;;;;;;;;;;5088739;28;20538;-57
2022/10/17 00:41:59;;;;;;;21.08;10.35;;;;;;;;;;5098737;28;20020;-57
2022/10/17 00:44:30;;;;;;;23.85;11.88;;;;;;;;;;5090362;28;20040;-56
2022/10/17 00:46:56;;;;;;;20.00;10.77;;;;;;;;;;5074484;28;20052;-57
2022/10/17 00:49:21;;;;;;;18.92;11.18;;;;;;;;;;5089404;28;20065;-57
2022/10/17 00:51:51;;;;;;;22.35;11.70;;;;;;;;;;5081427;28;20027;-58
2022/10/17 00:54:16;;;;;;;17.23;10.95;;;;;;;;;;5087523;28;20638;-57
2022/10/17 00:56:42;;;;;;;14.70;9.75;;;;;;;;;;5079949;28;20028;-57
2022/10/17 00:59:07;;;;;;;21.35;10.40;;;;;;;;;;5075323;28;20028;-57
2022/10/17 01:01:33;;;;;;;22.52;11.27;;;;;;;;;;5084565;28;20042;-57
2022/10/17 01:03:58;;;;;;;17.67;10.88;;;;;;;;;;5088169;28;20055;-56
2022/10/17 01:06:23;;;;;;;19.30;10.02;;;;;;;;;;5086623;28;20070;-57
2022/10/17 01:08:48;;;;;;;18.75;10.00;;;;;;;;;;5087618;28;20477;-57
2022/10/17 01:11:17;;;;;;;15.68;8.98;;;;;;;;;;5092473;28;20370;-56
2022/10/17 01:14:00;;;;;;;16.25;8.00;;;;;;;;;;5088757;28;20024;-58
2022/10/17 01:16:25;;;;;;;15.30;8.75;;;;;;;;;;5085570;28;20055;-57
2022/10/17 01:18:53;;;;;;;17.05;9.30;;;;;;;;;;5094481;28;20051;-57
2022/10/17 01:21:25;;;;;;;17.10;9.43;;;;;;;;;;5092021;28;20050;-57
2022/10/17 01:24:26;;;;;;;16.05;10.02;;;;;;;;;;5090865;28;20103;-56
2022/10/17 01:27:10;;;;;;;17.92;9.98;;;;;;;;;;5007271;28;20042;-57
2022/10/17 01:29:35;;;;;;;19.85;10.98;;;;;;;;;;5073622;28;20024;-57
2022/10/17 01:32:06;;;;;;;19.30;11.75;;;;;;;;;;5078176;28;20025;-57
2022/10/17 01:34:34;;;;;;;20.73;12.02;;;;;;;;;;5085602;28;20487;-57
2022/10/17 01:37:00;;;;;;;19.08;11.20;;;;;;;;;;5077928;28;20115;-55
2022/10/17 01:39:42;;;;;;;17.50;10.82;;;;;;;;;;5091673;28;20115;-56
2022/10/17 01:42:36;;;;;;;20.30;11.70;;;;;;;;;;5087404;28;20042;-56
2022/10/17 01:45:03;;;;;;;18.05;11.02;;;;;;;;;;5048558;28;20546;-56
2022/10/17 01:47:29;;;;;;;22.88;11.73;;;;;;;;;;5085404;28;20020;-57
2022/10/17 01:49:55;;;;;;;20.55;11.10;;;;;;;;;;5068882;28;20554;-56
2022/10/17 01:52:22;;;;;;;23.27;11.93;;;;;;;;;;5088077;28;20024;-57
2022/10/17 01:54:49;;;;;;;17.95;11.95;;;;;;;;;;5072461;28;20036;-57
2022/10/17 01:57:21;;;;;;;21.95;12.52;;;;;;;;;;5088181;28;20032;-56
2022/10/17 01:59:46;;;;;;;17.10;11.43;;;;;;;;;;5087433;28;20400;-55
2022/10/17 02:02:11;;;;;;;18.55;11.48;;;;;;;;;;5090765;28;20019;-56
2022/10/17 02:04:37;;;;;;;20.67;11.25;;;;;;;;;;5092879;28;20044;-57
2022/10/17 02:07:08;;;;;;;19.80;10.38;;;;;;;;;;5088498;28;20493;-57
2022/10/17 02:09:34;;;;;;;22.40;10.25;;;;;;;;;;5089435;28;20103;-56
2022/10/17 02:12:00;;;;;;;16.38;10.25;;;;;;;;;;5083587;28;20019;-57
2022/10/17 02:14:34;;;;;;;18.67;10.32;;;;;;;;;;5088949;28;20024;-56
2022/10/17 02:17:05;;;;;;;18.33;9.40;;;;;;;;;;5083617;28;20031;-56
2022/10/17 02:19:37;;;;;;;16.73;9.63;;;;;;;;;;5089514;28;20023;-56
2022/10/17 02:22:10;;;;;;;17.13;9.23;;;;;;;;;;5091943;28;20016;-56
2022/10/17 02:24:41;;;;;;;16.80;9.52;;;;;;;;;;5087995;28;20146;-56
2022/10/17 02:27:18;;;;;;;22.60;9.65;;;;;;;;;;5087537;28;20029;-56
2022/10/17 02:29:55;;;;;;;16.25;9.75;;;;;;;;;;5089366;28;20085;-56
2022/10/17 02:32:26;;;;;;;17.42;9.55;;;;;;;;;;5085824;28;20028;-56
2022/10/17 02:34:52;;;;;;;16.73;8.98;;;;;;;;;;5076534;28;20043;-56
2022/10/17 02:37:18;;;;;;;14.80;9.10;;;;;;;;;;5090659;28;20030;-56
2022/10/17 02:39:43;;;;;;;13.20;9.10;;;;;;;;;;5085500;28;20030;-55
2022/10/17 02:42:09;;;;;;;13.30;9.32;;;;;;;;;;5087281;28;20017;-56
2022/10/17 02:44:35;;;;;;;18.00;9.25;;;;;;;;;;5082120;28;20021;-56
2022/10/17 02:47:07;;;;;;;22.58;9.55;;;;;;;;;;5071234;28;20020;-56
2022/10/17 02:49:35;;;;;;;16.65;9.45;;;;;;;;;;5083399;28;20027;-56
2022/10/17 02:52:07;;;;;;;16.08;8.63;;;;;;;;;;5079450;28;20734;-56
2022/10/17 02:54:33;;;;;;;19.13;9.15;;;;;;;;;;5088659;28;20395;-56
2022/10/17 02:56:59;;;;;;;21.02;9.05;;;;;;;;;;5091710;28;20039;-56
2022/10/17 02:59:25;;;;;;;13.82;8.95;;;;;;;;;;5089456;28;20080;-55
2022/10/17 03:01:50;;;;;;;14.25;8.57;;;;;;;;;;5072860;28;20386;-56
2022/10/17 03:04:15;;;;;;;16.58;9.73;;;;;;;;;;5084597;28;20032;-57
2022/10/17 03:06:40;;;;;;;18.25;9.60;;;;;;;;;;5078630;28;20027;-55
2022/10/17 03:09:06;;;;;;;18.35;9.73;;;;;;;;;;5076568;28;20437;-56
2022/10/17 03:11:31;;;;;;;14.57;9.38;;;;;;;;;;5075524;28;20646;-56
2022/10/17 03:13:56;;;;;;;14.25;10.07;;;;;;;;;;5090666;28;20074;-57
2022/10/17 03:16:22;;;;;;;18.30;10.70;;;;;;;;;;5083182;28;20024;-56
2022/10/17 03:18:47;;;;;;;19.17;10.25;;;;;;;;;;5090351;28;20021;-56
2022/10/17 03:21:12;;;;;;;16.90;9.85;;;;;;;;;;5082613;28;20446;-57
2022/10/17 03:23:37;;;;;;;16.30;10.00;;;;;;;;;;5079344;28;20150;-56
2022/10/17 03:26:03;;;;;;;18.55;11.32;;;;;;;;;;5076673;28;20081;-56
2022/10/17 03:28:28;;;;;;;15.55;9.48;;;;;;;;;;5091165;28;20235;-56
2022/10/17 03:30:54;;;;;;;20.70;10.50;;;;;;;;;;5099179;28;20060;-56
2022/10/17 03:33:19;;;;;;;18.98;11.23;;;;;;;;;;5094436;28;20024;-56
2022/10/17 03:35:44;;;;;;;17.90;10.23;;;;;;;;;;5088215;28;20119;-56
2022/10/17 03:38:09;;;;;;;23.52;10.77;;;;;;;;;;5093240;28;20106;-56
2022/10/17 03:40:35;;;;;;;19.77;11.70;;;;;;;;;;5094011;28;20028;-56
2022/10/17 03:43:00;;;;;;;17.23;10.38;;;;;;;;;;5086909;28;20021;-56
2022/10/17 03:45:25;;;;;;;15.68;9.95;;;;;;;;;;5088031;28;20024;-56
2022/10/17 03:47:50;;;;;;;18.48;11.15;;;;;;;;;;5095405;28;20019;-56
2022/10/17 03:50:16;;;;;;;19.02;10.60;;;;;;;;;;5080435;28;20021;-56
2022/10/17 03:52:41;;;;;;;16.77;10.25;;;;;;;;;;5076161;28;20086;-56
2022/10/17 03:55:06;;;;;;;17.40;10.50;;;;;;;;;;5071284;28;20032;-56
2022/10/17 03:57:33;;;;;;;13.55;9.57;;;;;;;;;;5091307;28;20020;-56
2022/10/17 03:59:58;;;;;;;19.48;10.30;;;;;;;;;;5093069;28;20016;-56
2022/10/17 04:02:23;;;;;;;21.60;10.10;;;;;;;;;;5077027;28;20307;-56
2022/10/17 04:04:49;;;;;;;20.50;9.73;;;;;;;;;;5090537;28;20135;-56
2022/10/17 04:07:14;;;;;;;18.10;10.02;;;;;;;;;;5075562;28;20021;-56
2022/10/17 04:09:39;;;;;;;12.05;9.02;;;;;;;;;;5082627;28;20127;-56
2022/10/17 04:12:04;;;;;;;21.52;9.43;;;;;;;;;;5084042;28;20202;-56
2022/10/17 04:14:30;;;;;;;12.57;8.48;;;;;;;;;;5079850;28;20016;-56
2022/10/17 04:16:55;;;;;;;16.50;8.50;;;;;;;;;;5076866;28;20446;-56
2022/10/17 04:19:20;;;;;;;13.52;8.52;;;;;;;;;;5092686;28;20552;-56
2022/10/17 04:21:45;;;;;;;19.27;9.40;;;;;;;;;;5098508;28;20028;-55
2022/10/17 04:24:11;;;;;;;16.00;8.00;;;;;;;;;;5090792;28;20028;-56
2022/10/17 04:26:36;;;;;;;17.67;7.63;;;;;;;;;;5071179;28;20390;-55
2022/10/17 04:29:01;;;;;;;13.25;7.53;;;;;;;;;;5079885;28;20024;-56
2022/10/17 04:31:26;;;;;;;11.48;7.00;;;;;;;;;;5092161;28;20024;-56
2022/10/17 04:33:52;;;;;;;9.65;7.22;;;;;;;;;;5076032;28;20024;-56
2022/10/17 04:36:17;;;;;;;10.75;6.93;;;;;;;;;;5082628;28;20083;-56
2022/10/17 04:38:43;;;;;;;14.48;7.40;;;;;;;;;;5088029;28;20031;-56
2022/10/17 04:41:11;;;;;;;12.35;7.40;;;;;;;;;;5096366;28;20058;-56
2022/10/17 04:43:37;;;;;;;12.98;7.60;;;;;;;;;;5093340;28;20028;-55
2022/10/17 04:46:03;;;;;;;12.07;7.13;;;;;;;;;;5090961;28;20019;-56
2022/10/17 04:48:28;;;;;;;16.90;8.10;;;;;;;;;;5080199;28;20028;-55
2022/10/17 04:50:54;;;;;;;13.90;7.13;;;;;;;;;;5081687;28;20024;-56
2022/10/17 04:53:19;;;;;;;17.40;8.13;;;;;;;;;;5092440;28;20020;-56
2022/10/17 04:55:44;;;;;;;12.20;7.15;;;;;;;;;;5087416;28;20060;-56
2022/10/17 04:58:09;;;;;;;11.52;7.25;;;;;;;;;;5092485;28;20068;-56
2022/10/17 05:00:35;;;;;;;13.10;8.00;;;;;;;;;;5097845;28;20058;-57
2022/10/17 05:03:00;;;;;;;11.55;7.50;;;;;;;;;;5086676;28;20467;-56
2022/10/17 05:05:25;;;;;;;15.13;7.97;;;;;;;;;;5085740;28;20044;-56
2022/10/17 05:07:50;;;;;;;16.50;7.32;;;;;;;;;;5080720;28;20032;-57
2022/10/17 05:10:16;;;;;;;28.20;9.63;;;;;;;;;;5074183;28;20375;-57
2022/10/17 05:12:41;;;;;;;15.60;7.90;;;;;;;;;;5077864;28;20023;-57
2022/10/17 05:15:06;;;;;;;11.13;7.90;;;;;;;;;;5082150;28;20480;-57
2022/10/17 05:17:32;;;;;;;13.05;7.53;;;;;;;;;;5082500;28;20470;-57
2022/10/17 05:19:57;;;;;;;9.80;7.68;;;;;;;;;;5081432;28;20082;-56
2022/10/17 05:22:23;;;;;;;17.75;14.40;;;;;;;;;;5073403;28;20124;-56
2022/10/17 05:24:48;;;;;;;16.95;9.32;;;;;;;;;;5086487;28;20031;-57
2022/10/17 05:27:13;;;;;;;14.90;8.77;;;;;;;;;;5097501;28;20509;-57
2022/10/17 05:29:38;;;;;;;15.73;8.45;;;;;;;;;;5079096;28;20552;-57
2022/10/17 05:32:04;;;;;;;12.18;8.18;;;;;;;;;;5083940;28;20528;-56
2022/10/17 05:34:30;;;;;;;12.45;8.23;;;;;;;;;;5079732;28;20027;-57
2022/10/17 05:36:56;;;;;;;16.77;8.10;;;;;;;;;;5086169;28;20496;-56
2022/10/17 05:39:22;;;;;;;14.32;8.10;;;;;;;;;;5083349;28;20035;-56
2022/10/17 05:41:47;;;;;;;10.35;7.47;;;;;;;;;;5085573;28;20032;-57
2022/10/17 05:44:12;;;;;;;15.27;8.68;;;;;;;;;;5083152;28;20534;-57
2022/10/17 05:46:38;;;;;;;16.23;8.32;;;;;;;;;;5094062;28;20020;-56
2022/10/17 05:49:03;;;;;;;14.43;8.13;;;;;;;;;;5087015;28;20031;-56
2022/10/17 05:51:28;;;;;;;15.07;8.18;;;;;;;;;;5078523;28;20106;-57
2022/10/17 05:53:53;;;;;;;12.52;7.50;;;;;;;;;;5088076;28;20108;-56
2022/10/17 05:56:19;;;;;;;13.93;8.25;;;;;;;;;;5089922;28;20118;-57
2022/10/17 05:58:44;;;;;;;15.23;8.07;;;;;;;;;;5087483;28;20016;-56
2022/10/17 06:01:09;;;;;;;15.45;7.55;;;;;;;;;;5074336;28;20373;-56
2022/10/17 06:03:35;;;;;;;16.33;8.05;;;;;;;;;;5081629;28;20382;-56
2022/10/17 06:06:07;;;;;;;13.80;8.35;;;;;;;;;;5072408;28;20055;-57
2022/10/17 06:08:32;;;;;;;16.25;8.48;;;;;;;;;;5075386;28;20032;-57
2022/10/17 06:10:58;;;;;;;19.50;8.70;;;;;;;;;;5073076;28;20024;-57
2022/10/17 06:13:23;;;;;;;16.35;9.20;;;;;;;;;;5077552;28;20462;-55
2022/10/17 06:15:48;;;;;;;12.07;8.68;;;;;;;;;;5078062;28;20039;-57
2022/10/17 06:18:13;;;;;;;16.50;8.65;;;;;;;;;;5072251;28;20065;-57
2022/10/17 06:20:39;;;;;;;15.77;9.20;;;;;;;;;;5071549;28;20463;-57
2022/10/17 06:23:05;;;;;;;17.52;8.23;;;;;;;;;;5077093;28;20059;-56
2022/10/17 06:25:30;;;;;;;13.07;7.85;;;;;;;;;;5075847;28;20019;-56
2022/10/17 06:27:55;;;;;;;18.42;8.45;;;;;;;;;;5092468;28;20016;-55
2022/10/17 06:30:21;;;;;;;14.25;7.80;;;;;;;;;;5099034;28;20024;-56
2022/10/17 06:32:47;;;;;;;13.45;8.05;;;;;;;;;;5085217;28;20541;-56
2022/10/17 06:35:12;;;;;;;12.93;7.22;;;;;;;;;;5088352;28;20027;-58
2022/10/17 06:37:37;;;;;;;17.77;7.68;;;;;;;;;;5083334;28;20039;-56
2022/10/17 06:40:03;;;;;;;14.70;7.43;;;;;;;;;;5084476;28;20543;-56
2022/10/17 06:42:28;;;;;;;13.68;6.90;;;;;;;;;;5082744;28;20039;-56
2022/10/17 06:44:53;;;;;;;14.43;6.45;;;;;;;;;;5081569;28;20016;-57
2022/10/17 06:47:19;;;;;;;11.85;5.70;;;;;;;;;;5084429;28;20046;-56
2022/10/17 06:49:44;;;;;;;21.00;5.85;;;;;;;;;;5092248;28;20378;-56
2022/10/17 06:52:09;;;;;;;11.48;5.53;;;;;;;;;;5088143;28;20055;-56
2022/10/17 06:54:34;;;;;;;10.35;5.57;;;;;;;;;;5081845;28;20016;-56
2022/10/17 06:57:00;;;;;;;13.75;5.18;;;;;;;;;;5098292;28;20036;-56
2022/10/17 06:59:25;;;;;;;9.73;5.38;;;;;;;;;;5089243;28;20886;-56
2022/10/17 07:01:50;;;;;;;10.32;4.75;;;;;;;;;;5078948;28;20540;-56
2022/10/17 07:04:15;;;;;;;10.13;5.15;;;;;;;;;;5092129;28;20024;-56
2022/10/17 07:06:41;;;;;;;8.32;4.65;;;;;;;;;;5091421;28;20477;-56
2022/10/17 07:09:06;;;;;;;8.80;4.63;;;;;;;;;;5091580;28;20028;-56
2022/10/17 07:11:31;;;;;;;14.40;5.22;;;;;;;;;;5092205;28;20057;-55
2022/10/17 07:13:57;;;;;;;10.90;4.68;;;;;;;;;;5090941;28;20544;-56
2022/10/17 07:16:22;;;;;;;8.80;5.68;;;;;;;;;;5090005;28;20028;-56
2022/10/17 07:18:48;;;;;;;7.88;4.53;;;;;;;;;;5086704;28;20429;-55
2022/10/17 07:21:13;;;;;;;7.20;4.20;;;;;;;;;;5092809;28;20020;-56
2022/10/17 07:23:39;;;;;;;9.13;4.40;;;;;;;;;;5092315;28;20525;-58
2022/10/17 07:26:06;;;;;;;10.10;4.72;;;;;;;;;;5090424;28;20060;-56
2022/10/17 07:28:31;;;;;;;9.07;4.72;;;;;;;;;;5088990;28;20575;-56
2022/10/17 07:31:01;;;;;;;11.95;5.05;;;;;;;;;;5096242;28;20118;-55
2022/10/17 07:33:26;;;;;;;9.40;4.60;;;;;;;;;;5082981;28;20024;-56
2022/10/17 07:35:52;;;;;;;9.63;4.95;;;;;;;;;;5085986;28;20461;-56
2022/10/17 07:38:17;;;;;;;12.10;4.75;;;;;;;;;;5094530;28;20445;-56
2022/10/17 07:40:42;;;;;;;9.93;4.55;;;;;;;;;;5094565;28;20477;-56
2022/10/17 07:43:07;;;;;;;9.32;4.55;;;;;;;;;;5093699;28;20462;-56
2022/10/17 07:45:33;;;;;;;14.30;4.95;;;;;;;;;;5089099;28;20131;-56
2022/10/17 07:47:58;;;;;;;12.43;4.60;;;;;;;;;;5085629;28;20016;-55
2022/10/17 07:50:23;;;;;;;7.22;4.65;;;;;;;;;;5074712;28;20029;-56
2022/10/17 07:52:48;;;;;;;13.38;4.97;;;;;;;;;;5081896;28;20435;-56
2022/10/17 07:55:14;;;;;;;7.57;4.47;;;;;;;;;;5073291;28;20038;-56
2022/10/17 07:57:39;;;;;;;9.25;3.97;;;;;;;;;;5079850;28;20035;-56
2022/10/17 08:00:05;;;;;;;8.38;4.47;;;;;;;;;;5089049;28;20019;-56
2022/10/17 08:02:30;;;;;;;11.57;4.30;;;;;;;;;;5083639;28;20040;-56
2022/10/17 08:04:56;;;;;;;8.90;4.10;;;;;;;;;;5071116;28;20036;-56
2022/10/17 08:07:21;;;;;;;6.93;3.92;;;;;;;;;;5080618;28;20533;-56
2022/10/17 08:09:46;;;;;;;19.85;5.03;;;;;;;;;;5092952;28;20022;-56
2022/10/17 08:12:13;;;;;;;13.95;4.57;;;;;;;;;;5090986;28;20500;-55
2022/10/17 08:14:38;;;;;;;9.02;4.10;;;;;;;;;;5075156;28;20023;-56
2022/10/17 08:17:04;;;;;;;8.43;4.43;;;;;;;;;;5075530;28;20040;-56
2022/10/17 08:19:29;;;;;;;10.85;4.90;;;;;;;;;;5076452;28;20031;-56
2022/10/17 08:21:54;;;;;;;9.13;4.25;;;;;;;;;;5081486;28;20311;-55
2022/10/17 08:24:19;;;;;;;9.88;4.20;;;;;;;;;;5089054;28;20020;-56
2022/10/17 08:26:45;;;;;;;8.85;4.18;;;;;;;;;;5092939;28;20023;-55
2022/10/17 08:29:13;;;;;;;7.28;4.50;;;;;;;;;;5088250;28;20373;-56
2022/10/17 08:31:39;;;;;;;7.75;4.20;;;;;;;;;;5094519;28;20028;-56
2022/10/17 08:34:04;;;;;;;9.98;4.28;;;;;;;;;;5094114;28;20568;-56
2022/10/17 08:36:29;;;;;;;11.98;4.55;;;;;;;;;;5090374;28;20028;-58
2022/10/17 08:38:54;;;;;;;10.40;4.40;;;;;;;;;;5079488;28;20016;-55
2022/10/17 08:41:22;;;;;;;14.48;4.13;;;;;;;;;;5093431;28;20035;-57
2022/10/17 08:43:54;;;;;;;8.18;4.00;;;;;;;;;;5086216;28;20515;-56
2022/10/17 08:46:19;;;;;;;8.20;3.80;;;;;;;;;;5081628;28;20032;-56
2022/10/17 08:48:44;;;;;;;7.88;4.07;;;;;;;;;;5084949;28;20069;-56
2022/10/17 08:51:13;;;;;;;11.77;3.78;;;;;;;;;;5078938;28;20040;-56
2022/10/17 08:53:40;;;;;;;14.55;4.75;;;;;;;;;;5080906;28;20008;-56
2022/10/17 08:56:18;;;;;;;11.05;4.28;;;;;;;;;;5077169;28;20051;-55
2022/10/17 08:58:43;;;;;;;12.38;4.28;;;;;;;;;;5080777;28;20406;-56
2022/10/17 09:01:12;;;;;;;9.50;4.30;;;;;;;;;;5073758;28;20032;-58
2022/10/17 09:03:37;;;;;;;15.80;3.80;;;;;;;;;;5078284;28;20080;-56
2022/10/17 09:06:05;;;;;;;7.15;3.50;;;;;;;;;;5088282;28;20404;-57
2022/10/17 09:08:43;;;;;;;9.90;4.10;;;;;;;;;;5089806;28;20534;-57
2022/10/17 09:11:17;;;;;;;6.30;3.42;;;;;;;;;;5088669;28;20023;-57
2022/10/17 09:13:43;;;;;;;10.85;3.70;;;;;;;;;;5076224;28;20389;-57
2022/10/17 09:16:24;;;;;;;9.48;3.85;;;;;;;;;;5083614;28;20042;-57
2022/10/17 09:18:56;;;;;;;8.48;3.75;;;;;;;;;;5087482;28;20031;-58
2022/10/17 09:21:24;;;;;;;9.50;3.78;;;;;;;;;;5071627;28;20029;-57
2022/10/17 09:23:54;;;;;;;8.77;4.03;;;;;;;;;;5080589;28;20415;-57
2022/10/17 09:26:19;;;;;;;7.32;3.88;;;;;;;;;;5081639;28;20489;-57
2022/10/17 09:28:45;;;;;;;9.52;3.88;;;;;;;;;;5093726;28;20167;-57
2022/10/17 09:31:23;;;;;;;6.13;3.70;;;;;;;;;;5092295;28;20376;-57
2022/10/17 09:33:53;;;;;;;8.57;3.90;;;;;;;;;;5084543;28;20069;-57
2022/10/17 09:36:26;;;;;;;9.48;4.22;;;;;;;;;;5082425;28;20432;-57
2022/10/17 09:38:56;;;;;;;11.73;4.00;;;;;;;;;;5080438;28;20066;-57
2022/10/17 09:41:33;;;;;;;7.20;3.60;;;;;;;;;;5088930;28;20034;-57
2022/10/17 09:43:58;;;;;;;7.45;4.07;;;;;;;;;;5082347;28;20039;-57
2022/10/17 09:46:36;;;;;;;7.10;3.70;;;;;;;;;;5080068;28;20028;-57
2022/10/17 09:49:22;;;;;;;8.02;3.40;;;;;;;;;;5090811;28;20173;-57
2022/10/17 09:51:47;;;;;;;7.10;3.42;;;;;;;;;;5085145;28;20344;-56
2022/10/17 09:54:17;;;;;;;8.07;3.78;;;;;;;;;;5078968;28;20031;-57
2022/10/17 09:56:42;;;;;;;;;;;;;;;;;;5088568;28;20377;-57
2022/10/17 09:59:07;;;;;;;8.15;3.67;;;;;;;;;;5092587;28;20294;-56
2022/10/17 10:01:33;;;;;;;9.77;3.75;;;;;;;;;;5088927;28;20634;-56
2022/10/17 10:04:08;;;;;;;10.57;3.40;;;;;;;;;;5087201;28;20024;-57
2022/10/17 10:06:33;;;;;;;11.13;3.47;;;;;;;;;;5086793;28;20065;-57
2022/10/17 10:08:58;;;;;;;11.25;3.83;;;;;;;;;;5084896;28;20089;-57
2022/10/17 10:11:24;;;;;;;17.13;3.75;;;;;;;;;;5088269;28;20024;-56
2022/10/17 10:13:50;;;;;;;8.48;3.88;;;;;;;;;;5084598;28;20036;-56
2022/10/17 10:16:16;;;;;;;9.82;3.53;;;;;;;;;;5077967;28;20245;-57
2022/10/17 10:18:42;;;;;;;12.07;3.40;;;;;;;;;;5091077;28;20024;-57
2022/10/17 10:21:08;;;;;;;8.27;3.70;;;;;;;;;;5096915;28;20019;-56
2022/10/17 10:23:38;;;;;;;12.20;3.20;;;;;;;;;;5093524;28;20015;-57
2022/10/17 10:26:04;;;;;;;11.05;3.45;;;;;;;;;;5101040;28;20035;-55
2022/10/17 10:28:31;;;;;;;6.97;3.17;;;;;;;;;;5098026;28;20161;-57
2022/10/17 10:30:56;;;;;;;7.93;3.13;;;;;;;;;;5098476;28;20099;-56
2022/10/17 10:33:22;;;;;;;8.80;3.38;;;;;;;;;;5091781;27;20156;-56
2022/10/17 10:36:06;;;;;;;8.07;3.58;;;;;;;;;;5084866;28;20020;-56
2022/10/17 10:38:32;;;;;;;10.98;3.20;;;;;;;;;;5093274;28;20015;-56
2022/10/17 10:41:01;;;;;;;13.00;3.47;;;;;;;;;;5098532;28;20331;-56
2022/10/17 10:43:44;;;;;;;6.47;3.20;;;;;;;;;;5092086;27;20163;-57
2022/10/17 10:46:20;;;;;;;10.50;3.40;;;;;;;;;;5095970;28;20042;-57
2022/10/17 10:48:55;;;;;;;9.57;3.47;;;;;;;;;;5086061;28;20028;-56
2022/10/17 10:51:22;;;;;;;7.63;3.40;;;;;;;;;;5088580;28;20497;-56
2022/10/17 10:54:06;;;;;;;10.23;3.83;;;;;;;;;;5082976;28;20027;-56
2022/10/17 10:56:39;;;;;;;7.28;3.42;;;;;;;;;;5090530;28;20038;-56
2022/10/17 10:59:08;;;;;;;7.65;3.42;;;;;;;;;;5094063;28;20026;-58
2022/10/17 11:01:39;;;;;;;9.63;3.50;;;;;;;;;;5091039;28;20338;-58
2022/10/17 11:04:23;;;;;;;8.88;3.60;;;;;;;;;;5094307;28;20015;-56
2022/10/17 11:06:49;;;;;;;9.98;3.53;;;;;;;;;;5093621;28;20016;-58
2022/10/17 11:09:14;;;;;;;9.05;3.28;;;;;;;;;;5095673;28;20047;-56
2022/10/17 11:11:41;;;;;;;6.78;3.42;;;;;;;;;;5089889;28;20466;-58
2022/10/17 11:14:17;;;;;;;7.10;3.50;;;;;;;;;;5098432;28;20062;-58
2022/10/17 11:16:42;;;;;;;7.35;3.30;;;;;;;;;;5090778;28;20036;-56
2022/10/17 11:19:16;;;;;;;5.93;3.50;;;;;;;;;;5089196;28;20018;-58
2022/10/17 11:21:58;;;;;;;10.75;3.88;;;;;;;;;;5091063;28;20024;-57
2022/10/17 11:24:24;;;;;;;8.23;3.50;;;;;;;;;;5088827;28;20489;-56
2022/10/17 11:26:51;;;;;;;11.73;3.85;;;;;;;;;;5085745;28;20038;-57
2022/10/17 11:29:16;;;;;;;11.52;3.95;;;;;;;;;;5097404;28;20038;-56
2022/10/17 11:31:43;;;;;;;11.23;3.60;;;;;;;;;;5082885;28;20381;-57
2022/10/17 11:34:18;;;;;;;14.13;4.20;;;;;;;;;;5086008;28;20038;-56
2022/10/17 11:36:44;;;;;;;10.38;3.47;;;;;;;;;;5091286;28;20053;-56
2022/10/17 11:39:17;;;;;;;10.35;3.47;;;;;;;;;;5096732;28;20028;-56
2022/10/17 11:41:42;;;;;;;10.93;4.05;;;;;;;;;;5087533;28;20095;-56
2022/10/17 11:44:14;;;;;;;6.53;3.75;;;;;;;;;;5086254;28;20051;-57
2022/10/17 11:46:39;;;;;;;9.00;3.80;;;;;;;;;;5097568;28;20640;-55
2022/10/17 11:49:22;;;;;;;11.70;3.50;;;;;;;;;;5092724;28;20522;-57
2022/10/17 11:51:50;;;;;;;7.85;3.35;;;;;;;;;;5083317;28;20024;-56
2022/10/17 11:54:29;;;;;;;8.70;3.60;;;;;;;;;;5086577;28;20038;-57
2022/10/17 11:57:14;;;;;;;8.48;3.40;;;;;;;;;;5094681;28;20391;-56
2022/10/17 11:59:40;;;;;;;8.50;3.50;;;;;;;;;;5090825;28;20381;-55
2022/10/17 12:02:09;;;;;;;9.68;3.50;;;;;;;;;;5094006;28;20027;-56
2022/10/17 12:04:53;;;;;;;16.38;3.75;;;;;;;;;;5089052;28;20402;-56
2022/10/17 12:07:24;;;;;;;8.20;3.88;;;;;;;;;;5085615;28;20028;-56
2022/10/17 12:10:02;;;;;;;9.88;3.92;;;;;;;;;;5079071;28;20017;-56
2022/10/17 12:12:28;;;;;;;11.57;3.70;;;;;;;;;;5084285;28;20020;-56
2022/10/17 12:14:54;;;;;;;11.27;3.55;;;;;;;;;;5094605;28;20051;-59
2022/10/17 12:17:34;;;;;;;11.02;3.67;;;;;;;;;;5099556;28;20062;-56
2022/10/17 12:20:18;;;;;;;9.20;3.60;;;;;;;;;;5096255;28;20106;-57
2022/10/17 12:22:46;;;;;;;8.20;3.50;;;;;;;;;;5080124;28;20082;-57
2022/10/17 12:25:16;;;;;;;9.88;3.70;;;;;;;;;;5087326;28;20024;-57
2022/10/17 12:27:42;;;;;;;11.35;3.22;;;;;;;;;;5084019;28;20102;-57
2022/10/17 12:30:10;;;;;;;12.55;3.80;;;;;;;;;;5082854;28;20024;-57
2022/10/17 12:32:35;;;;;;;9.63;4.05;;;;;;;;;;5084876;28;20028;-57
2022/10/17 12:35:01;;;;;;;12.15;4.00;;;;;;;;;;5090954;28;20015;-56
2022/10/17 12:37:52;;;;;;;13.02;4.07;;;;;;;;;;5089180;28;20036;-56
2022/10/17 12:40:36;;;;;;;8.30;3.38;;;;;;;;;;5087541;28;20040;-58
2022/10/17 12:43:10;;;;;;;10.00;3.25;;;;;;;;;;5086367;28;20031;-57
2022/10/17 12:45:48;;;;;;;8.88;3.40;;;;;;;;;;5093672;28;20235;-59
2022/10/17 12:48:32;;;;;;;12.10;3.80;;;;;;;;;;5089806;28;20027;-56
2022/10/17 12:51:03;;;;;;;9.10;3.50;;;;;;;;;;5092021;28;20027;-58
2022/10/17 12:53:40;;;;;;;5.53;3.50;;;;;;;;;;5079489;28;20057;-57
2022/10/17 12:56:05;;;;;;;9.93;3.25;;;;;;;;;;5080660;28;20048;-55
2022/10/17 12:58:31;;;;;;;10.52;3.55;;;;;;;;;;5069209;28;20563;-56
2022/10/17 13:00:56;;;;;;;11.57;3.63;;;;;;;;;;5077116;28;20416;-57
2022/10/17 13:03:29;;;;;;;9.35;3.42;;;;;;;;;;5095400;28;20023;-58
2022/10/17 13:05:55;;;;;;;8.70;3.38;;;;;;;;;;5095605;28;20117;-55
2022/10/17 13:08:24;;;;;;;10.00;3.60;;;;;;;;;;5089863;28;20656;-57
2022/10/17 13:10:50;;;;;;;8.88;3.33;;;;;;;;;;5082763;28;20058;-57
2022/10/17 13:13:34;;;;;;;9.32;3.30;;;;;;;;;;5074810;28;20418;-57
2022/10/17 13:15:59;;;;;;;8.27;3.38;;;;;;;;;;5092769;28;20032;-57
2022/10/17 13:18:25;;;;;;;7.00;3.45;;;;;;;;;;5087622;28;20018;-57
2022/10/17 13:21:12;;;;;;;12.35;3.35;;;;;;;;;;5084510;28;20416;-57
2022/10/17 13:23:37;;;;;;;10.25;3.35;;;;;;;;;;5077902;28;20323;-57
2022/10/17 13:26:03;;;;;;;13.52;3.33;;;;;;;;;;5096464;28;20031;-58
2022/10/17 13:28:29;;;;;;;9.18;3.38;;;;;;;;;;5090436;28;20113;-57
2022/10/17 13:30:54;;;;;;;11.65;3.10;;;;;;;;;;5076793;28;20450;-58
2022/10/17 13:33:27;;;;;;;7.20;3.30;;;;;;;;;;5089396;28;20024;-58
2022/10/17 13:35:53;;;;;;;8.30;3.22;;;;;;;;;;5083883;28;20355;-58
2022/10/17 13:38:18;;;;;;;9.93;3.20;;;;;;;;;;5077783;28;20039;-55
2022/10/17 13:40:43;;;;;;;11.82;3.42;;;;;;;;;;5088640;28;20019;-55
2022/10/17 13:43:15;;;;;;;9.60;3.40;;;;;;;;;;5075122;28;20028;-56
2022/10/17 13:45:43;;;;;;;13.15;3.38;;;;;;;;;;5081722;28;20020;-56
2022/10/17 13:48:16;;;;;;;10.57;3.80;;;;;;;;;;5090076;28;20115;-57
2022/10/17 13:50:41;;;;;;;10.20;3.38;;;;;;;;;;5067624;28;20042;-56
2022/10/17 13:53:24;;;;;;;8.68;3.00;;;;;;;;;;5090927;28;20651;-57
2022/10/17 13:56:01;;;;;;;7.07;3.08;;;;;;;;;;5082901;28;20114;-58
2022/10/17 13:58:38;;;;;;;9.27;2.95;;;;;;;;;;5081499;28;20024;-56
2022/10/17 14:01:04;;;;;;;7.75;3.00;;;;;;;;;;5086938;28;20046;-57
2022/10/17 14:03:29;;;;;;;9.88;3.28;;;;;;;;;;5084128;28;20020;-57
2022/10/17 14:06:05;;;;;;;11.77;3.30;;;;;;;;;;5085584;28;20530;-58
2022/10/17 14:08:31;;;;;;;12.43;3.05;;;;;;;;;;5091547;28;20490;-56
2022/10/17 14:10:56;;;;;;;8.93;2.90;;;;;;;;;;5078945;28;20055;-56
2022/10/17 14:13:22;;;;;;;8.55;3.05;;;;;;;;;;5088207;28;20020;-56
2022/10/17 14:15:47;;;;;;;8.98;3.35;;;;;;;;;;5075850;28;20028;-57
2022/10/17 14:18:13;;;;;;;9.43;3.33;;;;;;;;;;5075764;28;20123;-56
2022/10/17 14:20:39;;;;;;;6.85;2.88;;;;;;;;;;5075085;28;20081;-56
2022/10/17 14:23:04;;;;;;;9.90;2.78;;;;;;;;;;5075372;28;20465;-57
2022/10/17 14:25:31;;;;;;;14.75;3.15;;;;;;;;;;5073854;28;20551;-57
2022/10/17 14:28:02;;;;;;;7.07;2.63;;;;;;;;;;5078277;28;20377;-55
2022/10/17 14:30:31;;;;;;;8.88;3.20;;;;;;;;;;5087608;28;20312;-56
2022/10/17 14:32:57;;;;;;;6.83;2.73;;;;;;;;;;5085045;28;20031;-57
2022/10/17 14:35:22;;;;;;;8.60;3.10;;;;;;;;;;5083825;28;20024;-57